sensor_id;sensor_type;location;lat;lon;timestamp;P1;durP1;ratioP1;P2;durP2;ratioP2
68888;SDS011;55930;47.412;8.790;2023-05-10T00:02:12;0.95;;;0.50;;
68888;SDS011;55930;47.412;8.790;2023-05-10T00:05:33;1.80;;;0.50;;
68888;SDS011;55930;47.412;8.790;2023-05-10T00:08:53;0.77;;;0.50;;
68888;SDS011;55930;47.412;8.790;2023-05-10T00:12:13;2.83;;;0.40;;
68888;SDS011;55930;47.412;8.790;2023-05-10T00:15:34;0.43;;;0.40;;
68888;SDS011;55930;47.412;8.790;2023-05-10T00:18:54;2.30;;;0.30;;
68888;SDS011;55930;47.412;8.790;2023-05-10T00:22:15;2.03;;;0.50;;
68888;SDS011;55930;47.412;8.790;2023-05-10T00:25:35;2.17;;;0.60;;
68888;SDS011;55930;47.412;8.790;2023-05-10T00:28:56;1.52;;;0.77;;
68888;SDS011;55930;47.412;8.790;2023-05-10T00:32:18;0.82;;;0.43;;
68888;SDS011;55930;47.412;8.790;2023-05-10T00:35:38;1.67;;;0.60;;
68888;SDS011;55930;47.412;8.790;2023-05-10T00:38:59;4.60;;;0.50;;
68888;SDS011;55930;47.412;8.790;2023-05-10T00:42:23;1.13;;;0.50;;
68888;SDS011;55930;47.412;8.790;2023-05-10T00:45:43;0.93;;;0.40;;
68888;SDS011;55930;47.412;8.790;2023-05-10T00:49:04;0.50;;;0.50;;
68888;SDS011;55930;47.412;8.790;2023-05-10T00:52:26;2.42;;;0.73;;
68888;SDS011;55930;47.412;8.790;2023-05-10T00:55:48;2.20;;;0.68;;
68888;SDS011;55930;47.412;8.790;2023-05-10T00:59:08;2.57;;;0.67;;
68888;SDS011;55930;47.412;8.790;2023-05-10T01:02:29;3.13;;;0.60;;
68888;SDS011;55930;47.412;8.790;2023-05-10T01:05:49;0.60;;;0.57;;
68888;SDS011;55930;47.412;8.790;2023-05-10T01:09:12;1.13;;;0.50;;
68888;SDS011;55930;47.412;8.790;2023-05-10T01:12:35;0.50;;;0.50;;
68888;SDS011;55930;47.412;8.790;2023-05-10T01:15:58;1.45;;;0.88;;
68888;SDS011;55930;47.412;8.790;2023-05-10T01:19:23;2.08;;;0.50;;
68888;SDS011;55930;47.412;8.790;2023-05-10T01:23:09;1.58;;;0.73;;
68888;SDS011;55930;47.412;8.790;2023-05-10T01:26:47;2.40;;;0.70;;
68888;SDS011;55930;47.412;8.790;2023-05-10T01:34:12;1.35;;;0.63;;
68888;SDS011;55930;47.412;8.790;2023-05-10T01:37:42;2.38;;;0.60;;
68888;SDS011;55930;47.412;8.790;2023-05-10T01:45:37;0.93;;;0.68;;
68888;SDS011;55930;47.412;8.790;2023-05-10T01:49:29;1.15;;;0.60;;
68888;SDS011;55930;47.412;8.790;2023-05-10T01:52:53;1.30;;;0.80;;
68888;SDS011;55930;47.412;8.790;2023-05-10T01:56:15;2.60;;;0.70;;
68888;SDS011;55930;47.412;8.790;2023-05-10T01:59:39;0.95;;;0.50;;
68888;SDS011;55930;47.412;8.790;2023-05-10T02:03:04;0.65;;;0.65;;
68888;SDS011;55930;47.412;8.790;2023-05-10T02:06:27;1.42;;;0.85;;
68888;SDS011;55930;47.412;8.790;2023-05-10T02:09:48;2.28;;;0.65;;
68888;SDS011;55930;47.412;8.790;2023-05-10T02:13:09;1.77;;;0.80;;
68888;SDS011;55930;47.412;8.790;2023-05-10T02:16:31;1.50;;;0.60;;
68888;SDS011;55930;47.412;8.790;2023-05-10T02:19:52;0.80;;;0.50;;
68888;SDS011;55930;47.412;8.790;2023-05-10T02:23:15;4.15;;;0.90;;
68888;SDS011;55930;47.412;8.790;2023-05-10T02:26:37;1.27;;;0.60;;
68888;SDS011;55930;47.412;8.790;2023-05-10T02:29:58;0.90;;;0.70;;
68888;SDS011;55930;47.412;8.790;2023-05-10T02:33:19;2.08;;;0.80;;
68888;SDS011;55930;47.412;8.790;2023-05-10T02:36:42;1.20;;;0.77;;
68888;SDS011;55930;47.412;8.790;2023-05-10T02:40:03;2.38;;;0.93;;
68888;SDS011;55930;47.412;8.790;2023-05-10T02:43:27;1.75;;;0.90;;
68888;SDS011;55930;47.412;8.790;2023-05-10T02:46:50;0.85;;;0.70;;
68888;SDS011;55930;47.412;8.790;2023-05-10T02:50:10;0.80;;;0.57;;
68888;SDS011;55930;47.412;8.790;2023-05-10T02:53:31;3.20;;;0.80;;
68888;SDS011;55930;47.412;8.790;2023-05-10T02:56:56;2.33;;;0.90;;
68888;SDS011;55930;47.412;8.790;2023-05-10T03:00:23;1.45;;;0.80;;
68888;SDS011;55930;47.412;8.790;2023-05-10T03:03:45;0.70;;;0.65;;
68888;SDS011;55930;47.412;8.790;2023-05-10T03:07:05;1.00;;;0.73;;
68888;SDS011;55930;47.412;8.790;2023-05-10T03:10:27;1.48;;;0.70;;
68888;SDS011;55930;47.412;8.790;2023-05-10T03:13:52;1.50;;;1.40;;
68888;SDS011;55930;47.412;8.790;2023-05-10T03:17:29;3.97;;;0.70;;
68888;SDS011;55930;47.412;8.790;2023-05-10T03:21:07;1.30;;;0.70;;
68888;SDS011;55930;47.412;8.790;2023-05-10T03:24:33;0.73;;;0.68;;
68888;SDS011;55930;47.412;8.790;2023-05-10T03:27:56;2.25;;;0.73;;
68888;SDS011;55930;47.412;8.790;2023-05-10T03:34:41;1.00;;;0.70;;
68888;SDS011;55930;47.412;8.790;2023-05-10T03:38:03;0.65;;;0.60;;
68888;SDS011;55930;47.412;8.790;2023-05-10T03:41:23;1.17;;;0.90;;
68888;SDS011;55930;47.412;8.790;2023-05-10T03:44:45;3.72;;;0.82;;
68888;SDS011;55930;47.412;8.790;2023-05-10T03:48:05;1.43;;;0.73;;
68888;SDS011;55930;47.412;8.790;2023-05-10T03:51:26;2.20;;;0.93;;
68888;SDS011;55930;47.412;8.790;2023-05-10T03:54:51;1.27;;;1.00;;
68888;SDS011;55930;47.412;8.790;2023-05-10T03:58:12;2.00;;;0.90;;
68888;SDS011;55930;47.412;8.790;2023-05-10T04:01:33;1.30;;;1.10;;
68888;SDS011;55930;47.412;8.790;2023-05-10T04:04:53;1.77;;;1.05;;
68888;SDS011;55930;47.412;8.790;2023-05-10T04:08:14;1.13;;;0.90;;
68888;SDS011;55930;47.412;8.790;2023-05-10T04:11:36;3.05;;;1.00;;
68888;SDS011;55930;47.412;8.790;2023-05-10T04:14:56;1.40;;;1.10;;
68888;SDS011;55930;47.412;8.790;2023-05-10T04:18:17;3.85;;;1.42;;
68888;SDS011;55930;47.412;8.790;2023-05-10T04:21:37;1.80;;;1.13;;
68888;SDS011;55930;47.412;8.790;2023-05-10T04:24:58;1.63;;;1.10;;
68888;SDS011;55930;47.412;8.790;2023-05-10T04:28:18;2.97;;;1.30;;
68888;SDS011;55930;47.412;8.790;2023-05-10T04:31:38;1.87;;;1.10;;
68888;SDS011;55930;47.412;8.790;2023-05-10T04:34:59;2.70;;;1.27;;
68888;SDS011;55930;47.412;8.790;2023-05-10T04:38:19;2.23;;;1.30;;
68888;SDS011;55930;47.412;8.790;2023-05-10T04:41:40;4.83;;;1.57;;
68888;SDS011;55930;47.412;8.790;2023-05-10T04:45:00;1.77;;;1.33;;
68888;SDS011;55930;47.412;8.790;2023-05-10T04:48:21;1.50;;;1.30;;
68888;SDS011;55930;47.412;8.790;2023-05-10T04:51:41;3.67;;;1.37;;
68888;SDS011;55930;47.412;8.790;2023-05-10T04:55:01;3.70;;;1.50;;
68888;SDS011;55930;47.412;8.790;2023-05-10T04:58:24;5.40;;;1.67;;
68888;SDS011;55930;47.412;8.790;2023-05-10T05:01:45;3.20;;;1.43;;
68888;SDS011;55930;47.412;8.790;2023-05-10T05:05:05;2.40;;;1.50;;
68888;SDS011;55930;47.412;8.790;2023-05-10T05:08:26;2.75;;;1.70;;
68888;SDS011;55930;47.412;8.790;2023-05-10T05:11:46;2.28;;;1.80;;
68888;SDS011;55930;47.412;8.790;2023-05-10T05:15:07;3.57;;;1.50;;
68888;SDS011;55930;47.412;8.790;2023-05-10T05:18:32;1.63;;;1.00;;
68888;SDS011;55930;47.412;8.790;2023-05-10T05:21:52;1.65;;;1.30;;
68888;SDS011;55930;47.412;8.790;2023-05-10T05:25:12;1.80;;;0.93;;
68888;SDS011;55930;47.412;8.790;2023-05-10T05:28:33;3.97;;;1.00;;
68888;SDS011;55930;47.412;8.790;2023-05-10T05:31:57;2.78;;;1.20;;
68888;SDS011;55930;47.412;8.790;2023-05-10T05:35:17;2.07;;;1.00;;
68888;SDS011;55930;47.412;8.790;2023-05-10T05:38:38;1.17;;;1.00;;
68888;SDS011;55930;47.412;8.790;2023-05-10T05:41:58;1.40;;;1.03;;
68888;SDS011;55930;47.412;8.790;2023-05-10T05:45:18;2.23;;;0.90;;
68888;SDS011;55930;47.412;8.790;2023-05-10T05:48:39;3.13;;;0.95;;
68888;SDS011;55930;47.412;8.790;2023-05-10T05:52:00;0.73;;;0.70;;
68888;SDS011;55930;47.412;8.790;2023-05-10T05:58:41;1.70;;;1.10;;
68888;SDS011;55930;47.412;8.790;2023-05-10T06:02:01;3.03;;;1.10;;
68888;SDS011;55930;47.412;8.790;2023-05-10T06:05:23;1.67;;;0.98;;
68888;SDS011;55930;47.412;8.790;2023-05-10T06:08:43;4.10;;;1.00;;
68888;SDS011;55930;47.412;8.790;2023-05-10T06:12:03;2.30;;;1.03;;
68888;SDS011;55930;47.412;8.790;2023-05-10T06:15:25;3.20;;;0.98;;
68888;SDS011;55930;47.412;8.790;2023-05-10T06:18:46;3.60;;;1.20;;
68888;SDS011;55930;47.412;8.790;2023-05-10T06:22:06;4.23;;;1.53;;
68888;SDS011;55930;47.412;8.790;2023-05-10T06:25:26;1.37;;;0.93;;
68888;SDS011;55930;47.412;8.790;2023-05-10T06:28:49;1.80;;;0.97;;
68888;SDS011;55930;47.412;8.790;2023-05-10T06:32:10;2.97;;;1.33;;
68888;SDS011;55930;47.412;8.790;2023-05-10T06:35:30;2.43;;;1.00;;
68888;SDS011;55930;47.412;8.790;2023-05-10T06:38:53;3.08;;;0.80;;
68888;SDS011;55930;47.412;8.790;2023-05-10T06:42:14;1.97;;;1.03;;
68888;SDS011;55930;47.412;8.790;2023-05-10T06:45:34;1.37;;;0.87;;
68888;SDS011;55930;47.412;8.790;2023-05-10T06:48:54;2.27;;;0.90;;
68888;SDS011;55930;47.412;8.790;2023-05-10T06:52:15;1.30;;;0.97;;
68888;SDS011;55930;47.412;8.790;2023-05-10T06:55:35;2.83;;;0.90;;
68888;SDS011;55930;47.412;8.790;2023-05-10T06:58:56;1.93;;;0.90;;
68888;SDS011;55930;47.412;8.790;2023-05-10T07:02:16;1.77;;;1.00;;
68888;SDS011;55930;47.412;8.790;2023-05-10T07:05:37;1.20;;;0.93;;
68888;SDS011;55930;47.412;8.790;2023-05-10T07:08:57;1.90;;;1.10;;
68888;SDS011;55930;47.412;8.790;2023-05-10T07:12:17;1.83;;;1.10;;
68888;SDS011;55930;47.412;8.790;2023-05-10T07:15:38;1.60;;;1.20;;
68888;SDS011;55930;47.412;8.790;2023-05-10T07:18:58;3.90;;;1.10;;
68888;SDS011;55930;47.412;8.790;2023-05-10T07:22:19;1.73;;;0.90;;
68888;SDS011;55930;47.412;8.790;2023-05-10T07:25:39;1.03;;;0.87;;
68888;SDS011;55930;47.412;8.790;2023-05-10T07:28:59;1.70;;;0.77;;
68888;SDS011;55930;47.412;8.790;2023-05-10T07:32:20;2.50;;;0.83;;
68888;SDS011;55930;47.412;8.790;2023-05-10T07:35:41;1.85;;;0.75;;
68888;SDS011;55930;47.412;8.790;2023-05-10T07:39:02;7.75;;;1.63;;
68888;SDS011;55930;47.412;8.790;2023-05-10T07:42:22;0.80;;;0.80;;
68888;SDS011;55930;47.412;8.790;2023-05-10T07:45:43;2.65;;;0.82;;
68888;SDS011;55930;47.412;8.790;2023-05-10T07:49:03;2.50;;;1.13;;
68888;SDS011;55930;47.412;8.790;2023-05-10T07:52:24;3.50;;;0.90;;
68888;SDS011;55930;47.412;8.790;2023-05-10T07:55:49;3.07;;;1.00;;
68888;SDS011;55930;47.412;8.790;2023-05-10T07:59:14;1.80;;;0.90;;
68888;SDS011;55930;47.412;8.790;2023-05-10T08:02:37;3.10;;;1.00;;
68888;SDS011;55930;47.412;8.790;2023-05-10T08:05:58;1.25;;;0.88;;
68888;SDS011;55930;47.412;8.790;2023-05-10T08:09:18;2.87;;;0.90;;
68888;SDS011;55930;47.412;8.790;2023-05-10T08:12:43;1.83;;;0.98;;
68888;SDS011;55930;47.412;8.790;2023-05-10T08:16:06;1.90;;;1.08;;
68888;SDS011;55930;47.412;8.790;2023-05-10T08:19:27;3.05;;;0.98;;
68888;SDS011;55930;47.412;8.790;2023-05-10T08:22:47;2.40;;;1.20;;
68888;SDS011;55930;47.412;8.790;2023-05-10T08:26:07;1.90;;;1.10;;
68888;SDS011;55930;47.412;8.790;2023-05-10T08:29:30;4.30;;;1.30;;
68888;SDS011;55930;47.412;8.790;2023-05-10T08:32:51;9.35;;;1.20;;
68888;SDS011;55930;47.412;8.790;2023-05-10T08:36:14;3.15;;;1.33;;
68888;SDS011;55930;47.412;8.790;2023-05-10T08:39:39;4.00;;;1.30;;
68888;SDS011;55930;47.412;8.790;2023-05-10T08:43:05;5.43;;;1.45;;
68888;SDS011;55930;47.412;8.790;2023-05-10T08:46:28;4.53;;;1.40;;
68888;SDS011;55930;47.412;8.790;2023-05-10T08:49:50;5.00;;;1.83;;
68888;SDS011;55930;47.412;8.790;2023-05-10T08:53:12;3.38;;;1.55;;
68888;SDS011;55930;47.412;8.790;2023-05-10T08:56:34;4.18;;;1.38;;
68888;SDS011;55930;47.412;8.790;2023-05-10T08:59:55;2.47;;;1.30;;
68888;SDS011;55930;47.412;8.790;2023-05-10T09:03:15;4.33;;;1.67;;
68888;SDS011;55930;47.412;8.790;2023-05-10T09:06:36;4.50;;;1.20;;
68888;SDS011;55930;47.412;8.790;2023-05-10T09:13:18;2.23;;;1.67;;
68888;SDS011;55930;47.412;8.790;2023-05-10T09:16:41;2.95;;;1.40;;
68888;SDS011;55930;47.412;8.790;2023-05-10T09:20:02;6.22;;;1.50;;
68888;SDS011;55930;47.412;8.790;2023-05-10T09:23:24;3.88;;;1.83;;
68888;SDS011;55930;47.412;8.790;2023-05-10T09:26:51;4.43;;;1.80;;
68888;SDS011;55930;47.412;8.790;2023-05-10T09:30:23;2.53;;;1.27;;
68888;SDS011;55930;47.412;8.790;2023-05-10T09:33:46;5.13;;;1.30;;
68888;SDS011;55930;47.412;8.790;2023-05-10T09:37:07;3.17;;;1.10;;
68888;SDS011;55930;47.412;8.790;2023-05-10T09:40:28;6.03;;;1.67;;
68888;SDS011;55930;47.412;8.790;2023-05-10T09:43:49;4.47;;;1.40;;
68888;SDS011;55930;47.412;8.790;2023-05-10T09:47:11;5.72;;;1.30;;
68888;SDS011;55930;47.412;8.790;2023-05-10T09:50:37;2.30;;;1.05;;
68888;SDS011;55930;47.412;8.790;2023-05-10T09:54:10;4.10;;;1.25;;
68888;SDS011;55930;47.412;8.790;2023-05-10T09:57:34;2.80;;;1.40;;
68888;SDS011;55930;47.412;8.790;2023-05-10T10:00:55;6.60;;;1.60;;
68888;SDS011;55930;47.412;8.790;2023-05-10T10:04:16;4.00;;;1.25;;
68888;SDS011;55930;47.412;8.790;2023-05-10T10:07:37;3.33;;;1.52;;
68888;SDS011;55930;47.412;8.790;2023-05-10T10:10:57;1.88;;;1.40;;
68888;SDS011;55930;47.412;8.790;2023-05-10T10:14:18;7.28;;;1.48;;
68888;SDS011;55930;47.412;8.790;2023-05-10T10:17:38;5.77;;;1.60;;
68888;SDS011;55930;47.412;8.790;2023-05-10T10:21:01;3.25;;;1.10;;
68888;SDS011;55930;47.412;8.790;2023-05-10T10:24:21;2.78;;;1.42;;
68888;SDS011;55930;47.412;8.790;2023-05-10T10:31:21;3.78;;;1.30;;
68888;SDS011;55930;47.412;8.790;2023-05-10T10:34:47;3.10;;;1.38;;
68888;SDS011;55930;47.412;8.790;2023-05-10T10:38:08;3.38;;;1.30;;
68888;SDS011;55930;47.412;8.790;2023-05-10T10:41:33;5.00;;;1.45;;
68888;SDS011;55930;47.412;8.790;2023-05-10T10:45:11;2.05;;;1.00;;
68888;SDS011;55930;47.412;8.790;2023-05-10T10:48:32;2.92;;;1.17;;
68888;SDS011;55930;47.412;8.790;2023-05-10T10:55:46;2.45;;;1.20;;
68888;SDS011;55930;47.412;8.790;2023-05-10T10:59:08;4.15;;;1.30;;
68888;SDS011;55930;47.412;8.790;2023-05-10T11:06:02;7.88;;;2.00;;
68888;SDS011;55930;47.412;8.790;2023-05-10T11:09:22;7.82;;;2.40;;
68888;SDS011;55930;47.412;8.790;2023-05-10T11:16:26;5.82;;;2.05;;
68888;SDS011;55930;47.412;8.790;2023-05-10T11:20:02;4.73;;;1.70;;
68888;SDS011;55930;47.412;8.790;2023-05-10T11:24:12;4.78;;;1.50;;
68888;SDS011;55930;47.412;8.790;2023-05-10T11:27:18;5.27;;;1.93;;
68888;SDS011;55930;47.412;8.790;2023-05-10T11:30:39;3.70;;;1.47;;
68888;SDS011;55930;47.412;8.790;2023-05-10T11:34:00;3.97;;;1.67;;
68888;SDS011;55930;47.412;8.790;2023-05-10T11:37:21;3.70;;;1.70;;
68888;SDS011;55930;47.412;8.790;2023-05-10T11:40:42;3.57;;;1.40;;
68888;SDS011;55930;47.412;8.790;2023-05-10T11:44:05;7.15;;;1.60;;
68888;SDS011;55930;47.412;8.790;2023-05-10T11:47:30;3.85;;;1.40;;
68888;SDS011;55930;47.412;8.790;2023-05-10T11:50:51;3.30;;;1.42;;
68888;SDS011;55930;47.412;8.790;2023-05-10T11:54:12;2.28;;;1.50;;
68888;SDS011;55930;47.412;8.790;2023-05-10T11:57:33;4.55;;;1.63;;
68888;SDS011;55930;47.412;8.790;2023-05-10T12:00:53;5.53;;;1.67;;
68888;SDS011;55930;47.412;8.790;2023-05-10T12:04:14;3.83;;;1.80;;
68888;SDS011;55930;47.412;8.790;2023-05-10T12:07:37;2.53;;;1.42;;
68888;SDS011;55930;47.412;8.790;2023-05-10T12:11:04;3.77;;;1.90;;
68888;SDS011;55930;47.412;8.790;2023-05-10T12:14:33;2.85;;;1.40;;
68888;SDS011;55930;47.412;8.790;2023-05-10T12:17:55;3.30;;;1.60;;
68888;SDS011;55930;47.412;8.790;2023-05-10T12:24:38;6.65;;;2.05;;
68888;SDS011;55930;47.412;8.790;2023-05-10T12:27:59;3.30;;;1.40;;
68888;SDS011;55930;47.412;8.790;2023-05-10T12:31:21;6.60;;;2.53;;
68888;SDS011;55930;47.412;8.790;2023-05-10T12:34:41;3.20;;;1.77;;
68888;SDS011;55930;47.412;8.790;2023-05-10T12:38:01;3.23;;;1.70;;
68888;SDS011;55930;47.412;8.790;2023-05-10T12:41:45;4.75;;;1.73;;
68888;SDS011;55930;47.412;8.790;2023-05-10T12:45:06;2.70;;;1.67;;
68888;SDS011;55930;47.412;8.790;2023-05-10T12:48:27;5.50;;;1.70;;
68888;SDS011;55930;47.412;8.790;2023-05-10T12:51:51;4.63;;;1.48;;
68888;SDS011;55930;47.412;8.790;2023-05-10T12:55:11;3.67;;;1.60;;
68888;SDS011;55930;47.412;8.790;2023-05-10T12:58:32;4.40;;;1.40;;
68888;SDS011;55930;47.412;8.790;2023-05-10T13:01:52;2.60;;;1.50;;
68888;SDS011;55930;47.412;8.790;2023-05-10T13:05:15;9.57;;;2.08;;
68888;SDS011;55930;47.412;8.790;2023-05-10T13:08:35;4.87;;;1.70;;
68888;SDS011;55930;47.412;8.790;2023-05-10T13:11:57;4.95;;;1.65;;
68888;SDS011;55930;47.412;8.790;2023-05-10T13:15:17;4.23;;;1.27;;
68888;SDS011;55930;47.412;8.790;2023-05-10T13:18:37;2.65;;;1.20;;
68888;SDS011;55930;47.412;8.790;2023-05-10T13:21:58;4.83;;;1.20;;
68888;SDS011;55930;47.412;8.790;2023-05-10T13:25:18;2.83;;;1.00;;
68888;SDS011;55930;47.412;8.790;2023-05-10T13:32:00;5.22;;;1.30;;
68888;SDS011;55930;47.412;8.790;2023-05-10T13:35:21;4.20;;;1.00;;
68888;SDS011;55930;47.412;8.790;2023-05-10T13:38:41;4.57;;;1.30;;
68888;SDS011;55930;47.412;8.790;2023-05-10T13:42:01;4.50;;;1.30;;
68888;SDS011;55930;47.412;8.790;2023-05-10T13:48:43;4.90;;;1.30;;
68888;SDS011;55930;47.412;8.790;2023-05-10T13:52:03;6.27;;;1.30;;
68888;SDS011;55930;47.412;8.790;2023-05-10T13:55:26;3.42;;;1.23;;
68888;SDS011;55930;47.412;8.790;2023-05-10T13:58:49;6.70;;;1.40;;
68888;SDS011;55930;47.412;8.790;2023-05-10T14:02:10;4.28;;;1.20;;
68888;SDS011;55930;47.412;8.790;2023-05-10T14:05:32;3.88;;;1.35;;
68888;SDS011;55930;47.412;8.790;2023-05-10T14:08:53;3.07;;;1.30;;
68888;SDS011;55930;47.412;8.790;2023-05-10T14:12:13;3.88;;;1.27;;
68888;SDS011;55930;47.412;8.790;2023-05-10T14:15:37;3.65;;;1.40;;
68888;SDS011;55930;47.412;8.790;2023-05-10T14:18:57;4.45;;;1.05;;
68888;SDS011;55930;47.412;8.790;2023-05-10T14:22:18;3.33;;;1.20;;
68888;SDS011;55930;47.412;8.790;2023-05-10T14:25:41;2.67;;;1.20;;
68888;SDS011;55930;47.412;8.790;2023-05-10T14:29:02;8.45;;;1.60;;
68888;SDS011;55930;47.412;8.790;2023-05-10T14:32:22;4.63;;;1.52;;
68888;SDS011;55930;47.412;8.790;2023-05-10T14:35:42;3.20;;;1.35;;
68888;SDS011;55930;47.412;8.790;2023-05-10T14:39:03;6.45;;;1.90;;
68888;SDS011;55930;47.412;8.790;2023-05-10T14:42:23;2.17;;;1.13;;
68888;SDS011;55930;47.412;8.790;2023-05-10T14:45:44;2.53;;;0.97;;
68888;SDS011;55930;47.412;8.790;2023-05-10T14:49:04;3.28;;;1.50;;
68888;SDS011;55930;47.412;8.790;2023-05-10T14:52:25;2.92;;;1.33;;
68888;SDS011;55930;47.412;8.790;2023-05-10T14:55:45;5.18;;;1.90;;
68888;SDS011;55930;47.412;8.790;2023-05-10T14:59:06;4.93;;;1.60;;
68888;SDS011;55930;47.412;8.790;2023-05-10T15:02:26;3.42;;;1.75;;
68888;SDS011;55930;47.412;8.790;2023-05-10T15:05:47;4.73;;;1.23;;
68888;SDS011;55930;47.412;8.790;2023-05-10T15:09:07;5.20;;;1.20;;
68888;SDS011;55930;47.412;8.790;2023-05-10T15:12:30;3.67;;;1.17;;
68888;SDS011;55930;47.412;8.790;2023-05-10T15:15:50;1.90;;;0.90;;
68888;SDS011;55930;47.412;8.790;2023-05-10T15:19:11;2.65;;;0.90;;
68888;SDS011;55930;47.412;8.790;2023-05-10T15:22:35;1.92;;;0.90;;
68888;SDS011;55930;47.412;8.790;2023-05-10T15:25:57;1.38;;;0.70;;
68888;SDS011;55930;47.412;8.790;2023-05-10T15:29:18;2.17;;;0.98;;
68888;SDS011;55930;47.412;8.790;2023-05-10T15:32:39;2.80;;;1.10;;
68888;SDS011;55930;47.412;8.790;2023-05-10T15:36:00;3.97;;;0.90;;
68888;SDS011;55930;47.412;8.790;2023-05-10T15:39:20;1.57;;;0.80;;
68888;SDS011;55930;47.412;8.790;2023-05-10T15:42:41;2.97;;;1.00;;
68888;SDS011;55930;47.412;8.790;2023-05-10T15:46:01;1.50;;;0.73;;
68888;SDS011;55930;47.412;8.790;2023-05-10T15:49:22;2.17;;;0.73;;
68888;SDS011;55930;47.412;8.790;2023-05-10T15:52:42;5.70;;;0.70;;
68888;SDS011;55930;47.412;8.790;2023-05-10T15:56:03;3.10;;;0.97;;
68888;SDS011;55930;47.412;8.790;2023-05-10T15:59:24;2.83;;;0.73;;
68888;SDS011;55930;47.412;8.790;2023-05-10T16:02:45;1.87;;;0.67;;
68888;SDS011;55930;47.412;8.790;2023-05-10T16:06:05;1.10;;;0.60;;
68888;SDS011;55930;47.412;8.790;2023-05-10T16:09:25;1.90;;;0.90;;
68888;SDS011;55930;47.412;8.790;2023-05-10T16:12:46;3.07;;;1.17;;
68888;SDS011;55930;47.412;8.790;2023-05-10T16:16:07;2.65;;;0.60;;
68888;SDS011;55930;47.412;8.790;2023-05-10T16:19:27;1.92;;;0.60;;
68888;SDS011;55930;47.412;8.790;2023-05-10T16:22:48;0.70;;;0.60;;
68888;SDS011;55930;47.412;8.790;2023-05-10T16:26:09;1.88;;;0.75;;
68888;SDS011;55930;47.412;8.790;2023-05-10T16:29:32;1.85;;;1.13;;
68888;SDS011;55930;47.412;8.790;2023-05-10T16:32:56;3.22;;;1.00;;
68888;SDS011;55930;47.412;8.790;2023-05-10T16:36:18;1.52;;;1.00;;
68888;SDS011;55930;47.412;8.790;2023-05-10T16:39:39;4.15;;;1.40;;
68888;SDS011;55930;47.412;8.790;2023-05-10T16:42:59;2.43;;;1.20;;
68888;SDS011;55930;47.412;8.790;2023-05-10T16:46:22;2.33;;;1.00;;
68888;SDS011;55930;47.412;8.790;2023-05-10T16:49:42;5.00;;;1.02;;
68888;SDS011;55930;47.412;8.790;2023-05-10T16:53:03;2.70;;;0.80;;
68888;SDS011;55930;47.412;8.790;2023-05-10T16:56:23;2.00;;;1.10;;
68888;SDS011;55930;47.412;8.790;2023-05-10T16:59:43;2.90;;;0.67;;
68888;SDS011;55930;47.412;8.790;2023-05-10T17:03:04;4.07;;;0.80;;
68888;SDS011;55930;47.412;8.790;2023-05-10T17:06:24;1.50;;;0.50;;
68888;SDS011;55930;47.412;8.790;2023-05-10T17:09:45;3.70;;;0.90;;
68888;SDS011;55930;47.412;8.790;2023-05-10T17:13:05;3.15;;;0.90;;
68888;SDS011;55930;47.412;8.790;2023-05-10T17:16:26;1.83;;;0.77;;
68888;SDS011;55930;47.412;8.790;2023-05-10T17:19:48;3.28;;;1.20;;
68888;SDS011;55930;47.412;8.790;2023-05-10T17:23:11;3.70;;;1.05;;
68888;SDS011;55930;47.412;8.790;2023-05-10T17:26:31;2.77;;;1.03;;
68888;SDS011;55930;47.412;8.790;2023-05-10T17:29:56;1.88;;;0.82;;
68888;SDS011;55930;47.412;8.790;2023-05-10T17:33:17;2.72;;;1.25;;
68888;SDS011;55930;47.412;8.790;2023-05-10T17:36:38;2.00;;;1.00;;
68888;SDS011;55930;47.412;8.790;2023-05-10T17:39:59;0.85;;;0.60;;
68888;SDS011;55930;47.412;8.790;2023-05-10T17:43:20;1.75;;;0.90;;
68888;SDS011;55930;47.412;8.790;2023-05-10T17:46:41;2.90;;;1.10;;
68888;SDS011;55930;47.412;8.790;2023-05-10T17:50:01;3.67;;;1.40;;
68888;SDS011;55930;47.412;8.790;2023-05-10T17:53:22;3.10;;;1.20;;
68888;SDS011;55930;47.412;8.790;2023-05-10T17:56:42;1.27;;;1.10;;
68888;SDS011;55930;47.412;8.790;2023-05-10T18:00:03;3.90;;;2.80;;
68888;SDS011;55930;47.412;8.790;2023-05-10T18:03:25;4.13;;;1.83;;
68888;SDS011;55930;47.412;8.790;2023-05-10T18:06:46;3.50;;;2.27;;
68888;SDS011;55930;47.412;8.790;2023-05-10T18:10:06;2.83;;;2.53;;
68888;SDS011;55930;47.412;8.790;2023-05-10T18:13:27;4.47;;;3.20;;
68888;SDS011;55930;47.412;8.790;2023-05-10T18:16:47;4.47;;;2.17;;
68888;SDS011;55930;47.412;8.790;2023-05-10T18:20:10;4.63;;;1.45;;
68888;SDS011;55930;47.412;8.790;2023-05-10T18:23:32;3.67;;;1.63;;
68888;SDS011;55930;47.412;8.790;2023-05-10T18:26:55;6.20;;;1.75;;
68888;SDS011;55930;47.412;8.790;2023-05-10T18:30:15;2.60;;;1.43;;
68888;SDS011;55930;47.412;8.790;2023-05-10T18:33:36;4.63;;;1.57;;
68888;SDS011;55930;47.412;8.790;2023-05-10T18:36:56;4.33;;;1.60;;
68888;SDS011;55930;47.412;8.790;2023-05-10T18:40:17;4.53;;;1.63;;
68888;SDS011;55930;47.412;8.790;2023-05-10T18:43:38;4.22;;;1.70;;
68888;SDS011;55930;47.412;8.790;2023-05-10T18:46:59;1.50;;;1.30;;
68888;SDS011;55930;47.412;8.790;2023-05-10T18:50:19;2.97;;;1.60;;
68888;SDS011;55930;47.412;8.790;2023-05-10T18:53:40;3.70;;;1.67;;
68888;SDS011;55930;47.412;8.790;2023-05-10T18:57:00;2.97;;;1.83;;
68888;SDS011;55930;47.412;8.790;2023-05-10T19:00:20;3.70;;;1.70;;
68888;SDS011;55930;47.412;8.790;2023-05-10T19:03:41;3.37;;;1.60;;
68888;SDS011;55930;47.412;8.790;2023-05-10T19:07:03;2.78;;;1.77;;
68888;SDS011;55930;47.412;8.790;2023-05-10T19:10:24;2.07;;;1.67;;
68888;SDS011;55930;47.412;8.790;2023-05-10T19:13:47;2.05;;;1.42;;
68888;SDS011;55930;47.412;8.790;2023-05-10T19:17:10;3.90;;;1.60;;
68888;SDS011;55930;47.412;8.790;2023-05-10T19:20:30;2.37;;;1.30;;
68888;SDS011;55930;47.412;8.790;2023-05-10T19:23:51;3.67;;;1.40;;
68888;SDS011;55930;47.412;8.790;2023-05-10T19:27:14;1.95;;;1.45;;
68888;SDS011;55930;47.412;8.790;2023-05-10T19:30:35;1.97;;;1.43;;
68888;SDS011;55930;47.412;8.790;2023-05-10T19:33:58;4.43;;;1.13;;
68888;SDS011;55930;47.412;8.790;2023-05-10T19:37:20;3.58;;;1.40;;
68888;SDS011;55930;47.412;8.790;2023-05-10T19:40:44;1.48;;;1.10;;
68888;SDS011;55930;47.412;8.790;2023-05-10T19:44:05;2.70;;;1.50;;
68888;SDS011;55930;47.412;8.790;2023-05-10T19:47:25;1.53;;;1.20;;
68888;SDS011;55930;47.412;8.790;2023-05-10T19:50:46;2.00;;;1.17;;
68888;SDS011;55930;47.412;8.790;2023-05-10T19:54:06;1.83;;;1.30;;
68888;SDS011;55930;47.412;8.790;2023-05-10T19:57:29;2.42;;;1.20;;
68888;SDS011;55930;47.412;8.790;2023-05-10T20:00:49;1.40;;;0.93;;
68888;SDS011;55930;47.412;8.790;2023-05-10T20:04:12;1.85;;;0.90;;
68888;SDS011;55930;47.412;8.790;2023-05-10T20:07:35;1.47;;;0.80;;
68888;SDS011;55930;47.412;8.790;2023-05-10T20:10:56;0.88;;;0.85;;
68888;SDS011;55930;47.412;8.790;2023-05-10T20:14:18;3.92;;;1.10;;
68888;SDS011;55930;47.412;8.790;2023-05-10T20:17:38;1.73;;;0.97;;
68888;SDS011;55930;47.412;8.790;2023-05-10T20:20:59;3.60;;;0.90;;
68888;SDS011;55930;47.412;8.790;2023-05-10T20:24:20;3.40;;;0.90;;
68888;SDS011;55930;47.412;8.790;2023-05-10T20:27:42;1.90;;;0.70;;
68888;SDS011;55930;47.412;8.790;2023-05-10T20:31:03;0.97;;;0.83;;
68888;SDS011;55930;47.412;8.790;2023-05-10T20:34:23;1.67;;;0.73;;
68888;SDS011;55930;47.412;8.790;2023-05-10T20:37:44;2.10;;;0.70;;
68888;SDS011;55930;47.412;8.790;2023-05-10T20:41:04;1.70;;;0.67;;
68888;SDS011;55930;47.412;8.790;2023-05-10T20:44:25;2.33;;;0.90;;
68888;SDS011;55930;47.412;8.790;2023-05-10T20:47:45;1.47;;;0.70;;
68888;SDS011;55930;47.412;8.790;2023-05-10T20:51:05;1.03;;;0.70;;
68888;SDS011;55930;47.412;8.790;2023-05-10T20:54:29;0.98;;;0.70;;
68888;SDS011;55930;47.412;8.790;2023-05-10T20:57:52;1.42;;;0.93;;
68888;SDS011;55930;47.412;8.790;2023-05-10T21:01:12;1.97;;;1.10;;